createdAt,value
2023-04-11T00:04:39.373Z,1.00
2023-04-11T00:07:11.637Z,1.30
2023-04-11T00:09:41.089Z,1.13
2023-04-11T00:12:10.351Z,1.20
2023-04-11T00:14:45.664Z,1.30
2023-04-11T00:19:46.274Z,1.27
2023-04-11T00:24:47.964Z,1.42
2023-04-11T00:27:17.237Z,1.40
2023-04-11T00:29:46.618Z,1.25
2023-04-11T00:32:15.893Z,1.30
2023-04-11T00:37:15.380Z,1.50
2023-04-11T00:39:50.423Z,1.40
2023-04-11T00:42:19.790Z,1.33
2023-04-11T00:44:49.076Z,1.33
2023-04-11T00:47:18.348Z,1.50
2023-04-11T00:52:17.234Z,1.40
2023-04-11T00:57:18.989Z,1.20
2023-04-11T01:04:48.683Z,1.30
2023-04-11T01:14:51.148Z,1.30
2023-04-11T01:22:20.940Z,1.30
2023-04-11T01:27:24.256Z,1.33
2023-04-11T01:34:52.312Z,1.20
2023-04-11T01:37:21.546Z,1.10
2023-04-11T01:39:53.406Z,1.27
2023-04-11T01:42:22.674Z,1.30
2023-04-11T01:44:52.139Z,1.60
2023-04-11T01:47:21.373Z,1.40
2023-04-11T01:49:50.878Z,1.20
2023-04-11T01:52:20.145Z,1.33
2023-04-11T01:54:49.411Z,1.52
2023-04-11T01:57:21.278Z,1.30
2023-04-11T01:59:50.540Z,1.30
2023-04-11T02:02:19.916Z,1.50
2023-04-11T02:04:49.231Z,1.50
2023-04-11T02:07:18.543Z,1.40
2023-04-11T02:09:47.802Z,1.20
2023-04-11T02:12:17.058Z,1.10
2023-04-11T02:14:49.937Z,1.30
2023-04-11T02:17:20.678Z,1.10
2023-04-11T02:19:49.967Z,1.20
2023-04-11T02:22:19.229Z,1.13
2023-04-11T02:24:48.493Z,1.20
2023-04-11T02:27:17.757Z,1.20
2023-04-11T02:29:49.586Z,1.20
2023-04-11T02:32:18.940Z,1.30
2023-04-11T02:34:48.291Z,1.17
2023-04-11T02:37:17.547Z,1.35
2023-04-11T02:39:46.782Z,1.13
2023-04-11T02:42:16.041Z,1.27
2023-04-11T02:44:45.286Z,1.23
2023-04-11T02:47:17.179Z,1.10
2023-04-11T02:49:46.461Z,1.10
2023-04-11T02:52:15.984Z,1.05
2023-04-11T02:54:45.256Z,1.27
2023-04-11T02:57:14.550Z,1.25
2023-04-11T02:59:43.783Z,1.25
2023-04-11T03:02:13.133Z,1.38
2023-04-11T03:04:46.597Z,1.08
2023-04-11T03:07:16.102Z,1.20
2023-04-11T03:09:45.352Z,1.20
2023-04-11T03:12:14.614Z,1.20
2023-04-11T03:14:43.853Z,1.10
2023-04-11T03:17:13.123Z,1.15
2023-04-11T03:19:44.964Z,1.20
2023-04-11T03:22:14.298Z,1.30
2023-04-11T03:24:43.552Z,1.33
2023-04-11T03:27:12.795Z,1.40
2023-04-11T03:29:42.027Z,1.30
2023-04-11T03:32:11.304Z,1.40
2023-04-11T03:34:40.549Z,1.40
2023-04-11T03:37:12.404Z,1.33
2023-04-11T03:39:41.653Z,1.40
2023-04-11T03:42:12.768Z,1.30
2023-04-11T03:47:11.085Z,1.60
2023-04-11T03:49:40.926Z,1.35
2023-04-11T03:52:15.096Z,1.30
2023-04-11T03:54:46.379Z,1.08
2023-04-11T03:57:16.888Z,1.42
2023-04-11T03:59:47.957Z,1.48
2023-04-11T04:04:48.806Z,1.38
2023-04-11T04:07:22.394Z,1.60
2023-04-11T04:09:51.620Z,1.88
2023-04-11T04:12:20.896Z,1.70
2023-04-11T04:14:50.136Z,1.70
2023-04-11T04:17:19.501Z,1.70
2023-04-11T04:19:48.758Z,1.80
2023-04-11T04:22:18.013Z,1.83
2023-04-11T04:24:49.970Z,1.70
2023-04-11T04:27:20.008Z,1.80
2023-04-11T04:29:52.810Z,1.60
2023-04-11T04:34:58.846Z,2.03
2023-04-11T04:37:28.352Z,1.95
2023-04-11T04:40:02.331Z,1.65
2023-04-11T04:42:32.096Z,1.80
2023-04-11T04:45:01.364Z,1.73
2023-04-11T04:47:32.126Z,1.70
2023-04-11T04:50:01.568Z,1.80
2023-04-11T04:52:31.211Z,1.70
2023-04-11T04:55:04.037Z,1.65
2023-04-11T04:57:34.030Z,1.90
2023-04-11T05:00:06.878Z,1.80
2023-04-11T05:02:38.044Z,1.70
2023-04-11T05:05:08.015Z,2.00
2023-04-11T05:07:37.357Z,1.92
2023-04-11T05:10:09.757Z,1.98
2023-04-11T18:35:39.338Z,1.95
2023-04-11T18:38:08.631Z,1.67
2023-04-11T18:40:37.914Z,1.80
2023-04-11T18:43:07.190Z,2.30
2023-04-11T18:45:36.729Z,2.40
2023-04-11T18:48:06.286Z,2.00
2023-04-11T18:50:42.973Z,2.00
2023-04-11T18:53:13.808Z,2.00
2023-04-11T18:55:43.491Z,2.40
2023-04-11T18:58:15.725Z,1.90
2023-04-11T19:00:48.944Z,2.00
2023-04-11T19:03:19.121Z,2.15
2023-04-11T19:05:51.681Z,1.92
2023-04-11T19:08:21.179Z,2.08
2023-04-11T19:10:50.502Z,2.20
2023-04-11T19:13:19.940Z,2.60
2023-04-11T19:15:49.206Z,2.58
2023-04-11T19:18:18.761Z,2.00
